Terminal Aerodrome Forecast
Issued by NWS Newport/Morehead City, NC

Home | Current Version | Previous Version | Text Only | Print | Product List | Glossary Off
Versions: 1 2 3 4 5 6 7 8 9 10 11 12 13 14 15 16 17 18 19 20 21 22 23 24

000
FTUS42 KMHX 302320
TAFEWN
TAF
KEWN 302320Z 3100/3124 18006KT P6SM SKC
     FM310300 17005KT P6SM BKN250
     FM310500 18005KT P6SM BKN150
     FM310900 00000KT 5SM BR BKN150
     FM311200 29004KT P6SM BKN130
     FM311500 32005KT P6SM SCT130
     FM311900 02005KT P6SM SCT050=

USA.gov is the U.S. government's official web portal to all federal, state and local government web resources and services.